<?xml version="1.0" encoding="UTF-8" standalone="no" ?>
<gpx xmlns="http://www.topografix.com/GPX/1/1" xmlns:xsi="http://www.w3.org/2001/XMLSchema-instance" xsi:schemaLocation="http://www.topografix.com/GPX/1/1 http://www.topografix.com/GPX/1/1/gpx.xsd" version="1.1" creator="VisuGPX - https://www.visugpx.com">
  <metadata>
    <name>2019-04-14 course de Saint Paulet</name>
    <desc><![CDATA[                                                                                  
                                                        
                                                   ]]></desc>
  </metadata>
  <trk>
    <name><![CDATA[2019-04-14 course de Saint Paulet]]></name>
    <trkseg>
      <trkpt lat="43.40606" lon="1.87744">
        <ele>277.64</ele>
        <time>2019-04-14T07:01:53Z</time>
      </trkpt>
      <trkpt lat="43.40584" lon="1.87731">
        <ele>250.92</ele>
        <time>2019-04-14T07:02:01Z</time>
      </trkpt>
      <trkpt lat="43.40565" lon="1.87719">
        <ele>232.7</ele>
        <time>2019-04-14T07:02:07Z</time>
      </trkpt>
      <trkpt lat="43.40548" lon="1.87707">
        <ele>227.09</ele>
        <time>2019-04-14T07:02:13Z</time>
      </trkpt>
      <trkpt lat="43.40528" lon="1.87699">
        <ele>224.28</ele>
        <time>2019-04-14T07:02:19Z</time>
      </trkpt>
      <trkpt lat="43.40508" lon="1.87697">
        <ele>222.83</ele>
        <time>2019-04-14T07:02:25Z</time>
      </trkpt>
      <trkpt lat="43.40486" lon="1.87697">
        <ele>222.06</ele>
        <time>2019-04-14T07:02:31Z</time>
      </trkpt>
      <trkpt lat="43.40467" lon="1.8769">
        <ele>220.67</ele>
        <time>2019-04-14T07:02:37Z</time>
      </trkpt>
      <trkpt lat="43.40449" lon="1.87676">
        <ele>218.87</ele>
        <time>2019-04-14T07:02:43Z</time>
      </trkpt>
      <trkpt lat="43.40431" lon="1.87664">
        <ele>217.5</ele>
        <time>2019-04-14T07:02:48Z</time>
      </trkpt>
      <trkpt lat="43.40413" lon="1.87653">
        <ele>215.82</ele>
        <time>2019-04-14T07:02:53Z</time>
      </trkpt>
      <trkpt lat="43.40395" lon="1.87642">
        <ele>214.63</ele>
        <time>2019-04-14T07:02:59Z</time>
      </trkpt>
      <trkpt lat="43.40376" lon="1.87629">
        <ele>213.89</ele>
        <time>2019-04-14T07:03:05Z</time>
      </trkpt>
      <trkpt lat="43.40355" lon="1.87622">
        <ele>213.43</ele>
        <time>2019-04-14T07:03:11Z</time>
      </trkpt>
      <trkpt lat="43.40334" lon="1.87614">
        <ele>212.78</ele>
        <time>2019-04-14T07:03:17Z</time>
      </trkpt>
      <trkpt lat="43.40314" lon="1.87604">
        <ele>212.09</ele>
        <time>2019-04-14T07:03:24Z</time>
      </trkpt>
      <trkpt lat="43.40294" lon="1.87594">
        <ele>211.48</ele>
        <time>2019-04-14T07:03:31Z</time>
      </trkpt>
      <trkpt lat="43.40269" lon="1.87586">
        <ele>211.85</ele>
        <time>2019-04-14T07:03:38Z</time>
      </trkpt>
      <trkpt lat="43.40245" lon="1.87577">
        <ele>212.07</ele>
        <time>2019-04-14T07:03:45Z</time>
      </trkpt>
      <trkpt lat="43.40223" lon="1.87572">
        <ele>211.95</ele>
        <time>2019-04-14T07:03:52Z</time>
      </trkpt>
      <trkpt lat="43.40208" lon="1.87595">
        <ele>211.38</ele>
        <time>2019-04-14T07:03:59Z</time>
      </trkpt>
      <trkpt lat="43.40192" lon="1.87623">
        <ele>210.57</ele>
        <time>2019-04-14T07:04:06Z</time>
      </trkpt>
      <trkpt lat="43.40177" lon="1.87646">
        <ele>210.25</ele>
        <time>2019-04-14T07:04:12Z</time>
      </trkpt>
      <trkpt lat="43.40161" lon="1.87671">
        <ele>209.97</ele>
        <time>2019-04-14T07:04:19Z</time>
      </trkpt>
      <trkpt lat="43.40135" lon="1.87685">
        <ele>209.14</ele>
        <time>2019-04-14T07:04:30Z</time>
      </trkpt>
      <trkpt lat="43.40112" lon="1.87684">
        <ele>208.1</ele>
        <time>2019-04-14T07:04:36Z</time>
      </trkpt>
      <trkpt lat="43.40091" lon="1.87673">
        <ele>206.76</ele>
        <time>2019-04-14T07:04:42Z</time>
      </trkpt>
      <trkpt lat="43.40073" lon="1.87662">
        <ele>205.03</ele>
        <time>2019-04-14T07:04:47Z</time>
      </trkpt>
      <trkpt lat="43.40054" lon="1.87673">
        <ele>203.29</ele>
        <time>2019-04-14T07:04:54Z</time>
      </trkpt>
      <trkpt lat="43.40032" lon="1.87682">
        <ele>202.37</ele>
        <time>2019-04-14T07:05:02Z</time>
      </trkpt>
      <trkpt lat="43.4001" lon="1.87677">
        <ele>201.59</ele>
        <time>2019-04-14T07:05:09Z</time>
      </trkpt>
      <trkpt lat="43.39992" lon="1.87665">
        <ele>201.48</ele>
        <time>2019-04-14T07:05:16Z</time>
      </trkpt>
      <trkpt lat="43.39984" lon="1.87643">
        <ele>201.4</ele>
        <time>2019-04-14T07:05:23Z</time>
      </trkpt>
      <trkpt lat="43.39983" lon="1.87618">
        <ele>201.04</ele>
        <time>2019-04-14T07:05:32Z</time>
      </trkpt>
      <trkpt lat="43.39974" lon="1.87586">
        <ele>200.8</ele>
        <time>2019-04-14T07:05:42Z</time>
      </trkpt>
      <trkpt lat="43.39956" lon="1.87567">
        <ele>200.9</ele>
        <time>2019-04-14T07:05:49Z</time>
      </trkpt>
      <trkpt lat="43.39932" lon="1.87563">
        <ele>200.64</ele>
        <time>2019-04-14T07:05:57Z</time>
      </trkpt>
      <trkpt lat="43.3991" lon="1.87565">
        <ele>200.35</ele>
        <time>2019-04-14T07:06:04Z</time>
      </trkpt>
      <trkpt lat="43.39883" lon="1.87562">
        <ele>200.26</ele>
        <time>2019-04-14T07:06:12Z</time>
      </trkpt>
      <trkpt lat="43.3986" lon="1.87546">
        <ele>200.13</ele>
        <time>2019-04-14T07:06:19Z</time>
      </trkpt>
      <trkpt lat="43.39843" lon="1.8752">
        <ele>200.06</ele>
        <time>2019-04-14T07:06:26Z</time>
      </trkpt>
      <trkpt lat="43.39825" lon="1.87504">
        <ele>200.23</ele>
        <time>2019-04-14T07:06:33Z</time>
      </trkpt>
      <trkpt lat="43.39805" lon="1.87493">
        <ele>201.14</ele>
        <time>2019-04-14T07:06:40Z</time>
      </trkpt>
      <trkpt lat="43.39787" lon="1.87479">
        <ele>202.19</ele>
        <time>2019-04-14T07:06:47Z</time>
      </trkpt>
      <trkpt lat="43.39769" lon="1.87459">
        <ele>202.64</ele>
        <time>2019-04-14T07:06:54Z</time>
      </trkpt>
      <trkpt lat="43.39753" lon="1.87435">
        <ele>201.46</ele>
        <time>2019-04-14T07:07:00Z</time>
      </trkpt>
      <trkpt lat="43.39743" lon="1.87411">
        <ele>199.79</ele>
        <time>2019-04-14T07:07:06Z</time>
      </trkpt>
      <trkpt lat="43.39734" lon="1.87384">
        <ele>198.68</ele>
        <time>2019-04-14T07:07:13Z</time>
      </trkpt>
      <trkpt lat="43.39715" lon="1.8737">
        <ele>198.7</ele>
        <time>2019-04-14T07:07:20Z</time>
      </trkpt>
      <trkpt lat="43.39696" lon="1.87356">
        <ele>199.09</ele>
        <time>2019-04-14T07:07:27Z</time>
      </trkpt>
      <trkpt lat="43.39678" lon="1.87336">
        <ele>199.77</ele>
        <time>2019-04-14T07:07:34Z</time>
      </trkpt>
      <trkpt lat="43.39662" lon="1.87319">
        <ele>201.37</ele>
        <time>2019-04-14T07:07:41Z</time>
      </trkpt>
      <trkpt lat="43.39643" lon="1.87303">
        <ele>203.3</ele>
        <time>2019-04-14T07:07:49Z</time>
      </trkpt>
      <trkpt lat="43.39625" lon="1.8729">
        <ele>204.8</ele>
        <time>2019-04-14T07:07:56Z</time>
      </trkpt>
      <trkpt lat="43.39607" lon="1.87276">
        <ele>206.2</ele>
        <time>2019-04-14T07:08:03Z</time>
      </trkpt>
      <trkpt lat="43.39589" lon="1.87262">
        <ele>207.63</ele>
        <time>2019-04-14T07:08:10Z</time>
      </trkpt>
      <trkpt lat="43.39571" lon="1.87248">
        <ele>208.21</ele>
        <time>2019-04-14T07:08:17Z</time>
      </trkpt>
      <trkpt lat="43.39551" lon="1.87232">
        <ele>208.65</ele>
        <time>2019-04-14T07:08:24Z</time>
      </trkpt>
      <trkpt lat="43.39535" lon="1.87211">
        <ele>208.91</ele>
        <time>2019-04-14T07:08:31Z</time>
      </trkpt>
      <trkpt lat="43.39523" lon="1.8719">
        <ele>208.65</ele>
        <time>2019-04-14T07:08:37Z</time>
      </trkpt>
      <trkpt lat="43.39511" lon="1.87171">
        <ele>208.04</ele>
        <time>2019-04-14T07:08:43Z</time>
      </trkpt>
      <trkpt lat="43.39499" lon="1.87148">
        <ele>207.3</ele>
        <time>2019-04-14T07:08:49Z</time>
      </trkpt>
      <trkpt lat="43.39488" lon="1.87126">
        <ele>206.14</ele>
        <time>2019-04-14T07:08:55Z</time>
      </trkpt>
      <trkpt lat="43.39493" lon="1.87096">
        <ele>206.13</ele>
        <time>2019-04-14T07:09:03Z</time>
      </trkpt>
      <trkpt lat="43.39504" lon="1.8707">
        <ele>206.95</ele>
        <time>2019-04-14T07:09:11Z</time>
      </trkpt>
      <trkpt lat="43.39515" lon="1.87044">
        <ele>207.95</ele>
        <time>2019-04-14T07:09:19Z</time>
      </trkpt>
      <trkpt lat="43.39527" lon="1.87021">
        <ele>208.71</ele>
        <time>2019-04-14T07:09:28Z</time>
      </trkpt>
      <trkpt lat="43.39538" lon="1.86994">
        <ele>209.44</ele>
        <time>2019-04-14T07:09:35Z</time>
      </trkpt>
      <trkpt lat="43.39551" lon="1.86968">
        <ele>210.57</ele>
        <time>2019-04-14T07:09:43Z</time>
      </trkpt>
      <trkpt lat="43.39564" lon="1.86943">
        <ele>212.06</ele>
        <time>2019-04-14T07:09:51Z</time>
      </trkpt>
      <trkpt lat="43.39574" lon="1.86915">
        <ele>213.37</ele>
        <time>2019-04-14T07:09:59Z</time>
      </trkpt>
      <trkpt lat="43.3958" lon="1.86888">
        <ele>214.51</ele>
        <time>2019-04-14T07:10:06Z</time>
      </trkpt>
      <trkpt lat="43.39584" lon="1.8686">
        <ele>215.63</ele>
        <time>2019-04-14T07:10:13Z</time>
      </trkpt>
      <trkpt lat="43.39586" lon="1.86834">
        <ele>216.7</ele>
        <time>2019-04-14T07:10:20Z</time>
      </trkpt>
      <trkpt lat="43.39588" lon="1.86807">
        <ele>217.91</ele>
        <time>2019-04-14T07:10:28Z</time>
      </trkpt>
      <trkpt lat="43.39592" lon="1.8678">
        <ele>219.61</ele>
        <time>2019-04-14T07:10:36Z</time>
      </trkpt>
      <trkpt lat="43.39595" lon="1.86753">
        <ele>221.82</ele>
        <time>2019-04-14T07:10:46Z</time>
      </trkpt>
      <trkpt lat="43.39603" lon="1.86724">
        <ele>225.1</ele>
        <time>2019-04-14T07:10:58Z</time>
      </trkpt>
      <trkpt lat="43.39614" lon="1.86699">
        <ele>227.39</ele>
        <time>2019-04-14T07:11:10Z</time>
      </trkpt>
      <trkpt lat="43.39629" lon="1.86671">
        <ele>231.52</ele>
        <time>2019-04-14T07:11:25Z</time>
      </trkpt>
      <trkpt lat="43.39646" lon="1.86644">
        <ele>235.32</ele>
        <time>2019-04-14T07:11:39Z</time>
      </trkpt>
      <trkpt lat="43.39657" lon="1.86607">
        <ele>238.37</ele>
        <time>2019-04-14T07:11:50Z</time>
      </trkpt>
      <trkpt lat="43.39678" lon="1.86566">
        <ele>240.57</ele>
        <time>2019-04-14T07:12:04Z</time>
      </trkpt>
      <trkpt lat="43.39703" lon="1.86536">
        <ele>243.97</ele>
        <time>2019-04-14T07:12:18Z</time>
      </trkpt>
      <trkpt lat="43.39725" lon="1.86506">
        <ele>247.56</ele>
        <time>2019-04-14T07:12:33Z</time>
      </trkpt>
      <trkpt lat="43.39751" lon="1.86481">
        <ele>251.14</ele>
        <time>2019-04-14T07:12:49Z</time>
      </trkpt>
      <trkpt lat="43.39765" lon="1.86467">
        <ele>253.64</ele>
        <time>2019-04-14T07:13:00Z</time>
      </trkpt>
      <trkpt lat="43.39758" lon="1.86429">
        <ele>254.18</ele>
        <time>2019-04-14T07:13:08Z</time>
      </trkpt>
      <trkpt lat="43.39748" lon="1.86403">
        <ele>254.55</ele>
        <time>2019-04-14T07:13:15Z</time>
      </trkpt>
      <trkpt lat="43.39734" lon="1.8638">
        <ele>254.67</ele>
        <time>2019-04-14T07:13:22Z</time>
      </trkpt>
      <trkpt lat="43.39717" lon="1.86354">
        <ele>254.57</ele>
        <time>2019-04-14T07:13:29Z</time>
      </trkpt>
      <trkpt lat="43.39702" lon="1.86332">
        <ele>254.68</ele>
        <time>2019-04-14T07:13:36Z</time>
      </trkpt>
      <trkpt lat="43.39686" lon="1.86309">
        <ele>254.69</ele>
        <time>2019-04-14T07:13:44Z</time>
      </trkpt>
      <trkpt lat="43.39667" lon="1.86292">
        <ele>254.8</ele>
        <time>2019-04-14T07:13:51Z</time>
      </trkpt>
      <trkpt lat="43.3965" lon="1.86273">
        <ele>254.43</ele>
        <time>2019-04-14T07:13:57Z</time>
      </trkpt>
      <trkpt lat="43.39633" lon="1.86258">
        <ele>253.41</ele>
        <time>2019-04-14T07:14:03Z</time>
      </trkpt>
      <trkpt lat="43.39615" lon="1.8624">
        <ele>251.56</ele>
        <time>2019-04-14T07:14:09Z</time>
      </trkpt>
      <trkpt lat="43.39598" lon="1.86222">
        <ele>248.1</ele>
        <time>2019-04-14T07:14:14Z</time>
      </trkpt>
      <trkpt lat="43.39581" lon="1.86203">
        <ele>245.21</ele>
        <time>2019-04-14T07:14:19Z</time>
      </trkpt>
      <trkpt lat="43.39568" lon="1.86181">
        <ele>243.06</ele>
        <time>2019-04-14T07:14:24Z</time>
      </trkpt>
      <trkpt lat="43.39556" lon="1.86155">
        <ele>240.62</ele>
        <time>2019-04-14T07:14:30Z</time>
      </trkpt>
      <trkpt lat="43.39544" lon="1.86133">
        <ele>239.05</ele>
        <time>2019-04-14T07:14:35Z</time>
      </trkpt>
      <trkpt lat="43.3953" lon="1.86109">
        <ele>237.71</ele>
        <time>2019-04-14T07:14:41Z</time>
      </trkpt>
      <trkpt lat="43.39514" lon="1.8609">
        <ele>236.99</ele>
        <time>2019-04-14T07:14:47Z</time>
      </trkpt>
      <trkpt lat="43.39504" lon="1.86065">
        <ele>236.28</ele>
        <time>2019-04-14T07:14:53Z</time>
      </trkpt>
      <trkpt lat="43.39498" lon="1.86038">
        <ele>235.37</ele>
        <time>2019-04-14T07:14:59Z</time>
      </trkpt>
      <trkpt lat="43.39494" lon="1.8601">
        <ele>234.36</ele>
        <time>2019-04-14T07:15:05Z</time>
      </trkpt>
      <trkpt lat="43.39488" lon="1.85987">
        <ele>233.49</ele>
        <time>2019-04-14T07:15:10Z</time>
      </trkpt>
      <trkpt lat="43.39473" lon="1.85965">
        <ele>232.36</ele>
        <time>2019-04-14T07:15:16Z</time>
      </trkpt>
      <trkpt lat="43.39462" lon="1.85942">
        <ele>231.71</ele>
        <time>2019-04-14T07:15:22Z</time>
      </trkpt>
      <trkpt lat="43.39457" lon="1.85917">
        <ele>230.02</ele>
        <time>2019-04-14T07:15:27Z</time>
      </trkpt>
      <trkpt lat="43.39453" lon="1.85889">
        <ele>227.73</ele>
        <time>2019-04-14T07:15:33Z</time>
      </trkpt>
      <trkpt lat="43.3945" lon="1.85862">
        <ele>225</ele>
        <time>2019-04-14T07:15:39Z</time>
      </trkpt>
      <trkpt lat="43.39444" lon="1.85835">
        <ele>223.58</ele>
        <time>2019-04-14T07:15:45Z</time>
      </trkpt>
      <trkpt lat="43.39433" lon="1.85813">
        <ele>222.92</ele>
        <time>2019-04-14T07:15:51Z</time>
      </trkpt>
      <trkpt lat="43.3942" lon="1.8579">
        <ele>222.83</ele>
        <time>2019-04-14T07:15:58Z</time>
      </trkpt>
      <trkpt lat="43.39408" lon="1.85768">
        <ele>223.22</ele>
        <time>2019-04-14T07:16:04Z</time>
      </trkpt>
      <trkpt lat="43.39395" lon="1.85747">
        <ele>223.9</ele>
        <time>2019-04-14T07:16:11Z</time>
      </trkpt>
      <trkpt lat="43.39385" lon="1.85725">
        <ele>224.64</ele>
        <time>2019-04-14T07:16:18Z</time>
      </trkpt>
      <trkpt lat="43.39389" lon="1.85699">
        <ele>225.32</ele>
        <time>2019-04-14T07:16:25Z</time>
      </trkpt>
      <trkpt lat="43.39394" lon="1.85675">
        <ele>226.17</ele>
        <time>2019-04-14T07:16:32Z</time>
      </trkpt>
      <trkpt lat="43.39393" lon="1.85649">
        <ele>227.98</ele>
        <time>2019-04-14T07:16:40Z</time>
      </trkpt>
      <trkpt lat="43.39392" lon="1.8562">
        <ele>229.3</ele>
        <time>2019-04-14T07:16:48Z</time>
      </trkpt>
      <trkpt lat="43.3939" lon="1.85592">
        <ele>231.11</ele>
        <time>2019-04-14T07:16:56Z</time>
      </trkpt>
      <trkpt lat="43.39388" lon="1.85565">
        <ele>233.48</ele>
        <time>2019-04-14T07:17:04Z</time>
      </trkpt>
      <trkpt lat="43.39386" lon="1.85539">
        <ele>235.49</ele>
        <time>2019-04-14T07:17:12Z</time>
      </trkpt>
      <trkpt lat="43.39384" lon="1.85514">
        <ele>238.03</ele>
        <time>2019-04-14T07:17:21Z</time>
      </trkpt>
      <trkpt lat="43.39378" lon="1.85489">
        <ele>241.04</ele>
        <time>2019-04-14T07:17:30Z</time>
      </trkpt>
      <trkpt lat="43.3937" lon="1.85466">
        <ele>243</ele>
        <time>2019-04-14T07:17:38Z</time>
      </trkpt>
      <trkpt lat="43.39359" lon="1.8544">
        <ele>244.03</ele>
        <time>2019-04-14T07:17:46Z</time>
      </trkpt>
      <trkpt lat="43.39353" lon="1.85418">
        <ele>245.58</ele>
        <time>2019-04-14T07:17:56Z</time>
      </trkpt>
      <trkpt lat="43.39368" lon="1.85431">
        <ele>246.87</ele>
        <time>2019-04-14T07:18:03Z</time>
      </trkpt>
      <trkpt lat="43.39383" lon="1.85446">
        <ele>247.44</ele>
        <time>2019-04-14T07:18:10Z</time>
      </trkpt>
      <trkpt lat="43.39404" lon="1.85454">
        <ele>247.2</ele>
        <time>2019-04-14T07:18:17Z</time>
      </trkpt>
      <trkpt lat="43.39424" lon="1.85453">
        <ele>246.82</ele>
        <time>2019-04-14T07:18:23Z</time>
      </trkpt>
      <trkpt lat="43.39444" lon="1.85447">
        <ele>246.25</ele>
        <time>2019-04-14T07:18:29Z</time>
      </trkpt>
      <trkpt lat="43.39462" lon="1.8544">
        <ele>245.58</ele>
        <time>2019-04-14T07:18:35Z</time>
      </trkpt>
      <trkpt lat="43.39482" lon="1.85435">
        <ele>244.98</ele>
        <time>2019-04-14T07:18:41Z</time>
      </trkpt>
      <trkpt lat="43.39502" lon="1.85431">
        <ele>244.9</ele>
        <time>2019-04-14T07:18:47Z</time>
      </trkpt>
      <trkpt lat="43.3952" lon="1.85426">
        <ele>244.83</ele>
        <time>2019-04-14T07:18:53Z</time>
      </trkpt>
      <trkpt lat="43.39538" lon="1.85422">
        <ele>245</ele>
        <time>2019-04-14T07:18:59Z</time>
      </trkpt>
      <trkpt lat="43.39556" lon="1.8542">
        <ele>244.91</ele>
        <time>2019-04-14T07:19:05Z</time>
      </trkpt>
      <trkpt lat="43.39575" lon="1.85422">
        <ele>245</ele>
        <time>2019-04-14T07:19:11Z</time>
      </trkpt>
      <trkpt lat="43.39595" lon="1.85425">
        <ele>245.11</ele>
        <time>2019-04-14T07:19:18Z</time>
      </trkpt>
      <trkpt lat="43.39616" lon="1.85428">
        <ele>245.26</ele>
        <time>2019-04-14T07:19:25Z</time>
      </trkpt>
      <trkpt lat="43.39637" lon="1.85434">
        <ele>245.19</ele>
        <time>2019-04-14T07:19:32Z</time>
      </trkpt>
      <trkpt lat="43.39654" lon="1.85445">
        <ele>244.85</ele>
        <time>2019-04-14T07:19:38Z</time>
      </trkpt>
      <trkpt lat="43.39672" lon="1.85458">
        <ele>243.99</ele>
        <time>2019-04-14T07:19:44Z</time>
      </trkpt>
      <trkpt lat="43.39689" lon="1.85473">
        <ele>243.6</ele>
        <time>2019-04-14T07:19:51Z</time>
      </trkpt>
      <trkpt lat="43.39706" lon="1.85489">
        <ele>243.71</ele>
        <time>2019-04-14T07:19:58Z</time>
      </trkpt>
      <trkpt lat="43.39725" lon="1.85506">
        <ele>244.37</ele>
        <time>2019-04-14T07:20:05Z</time>
      </trkpt>
      <trkpt lat="43.39741" lon="1.85525">
        <ele>244.83</ele>
        <time>2019-04-14T07:20:12Z</time>
      </trkpt>
      <trkpt lat="43.39757" lon="1.85544">
        <ele>245.01</ele>
        <time>2019-04-14T07:20:19Z</time>
      </trkpt>
      <trkpt lat="43.39773" lon="1.85565">
        <ele>245.28</ele>
        <time>2019-04-14T07:20:26Z</time>
      </trkpt>
      <trkpt lat="43.39788" lon="1.85585">
        <ele>245.64</ele>
        <time>2019-04-14T07:20:33Z</time>
      </trkpt>
      <trkpt lat="43.39803" lon="1.85608">
        <ele>246.3</ele>
        <time>2019-04-14T07:20:40Z</time>
      </trkpt>
      <trkpt lat="43.39819" lon="1.85628">
        <ele>246.03</ele>
        <time>2019-04-14T07:20:46Z</time>
      </trkpt>
      <trkpt lat="43.39836" lon="1.85648">
        <ele>245.2</ele>
        <time>2019-04-14T07:20:52Z</time>
      </trkpt>
      <trkpt lat="43.39854" lon="1.85666">
        <ele>244.58</ele>
        <time>2019-04-14T07:20:58Z</time>
      </trkpt>
      <trkpt lat="43.39869" lon="1.85683">
        <ele>243.93</ele>
        <time>2019-04-14T07:21:04Z</time>
      </trkpt>
      <trkpt lat="43.39885" lon="1.85701">
        <ele>243.18</ele>
        <time>2019-04-14T07:21:10Z</time>
      </trkpt>
      <trkpt lat="43.39902" lon="1.8572">
        <ele>242.1</ele>
        <time>2019-04-14T07:21:16Z</time>
      </trkpt>
      <trkpt lat="43.39919" lon="1.85739">
        <ele>241.08</ele>
        <time>2019-04-14T07:21:22Z</time>
      </trkpt>
      <trkpt lat="43.39932" lon="1.8576">
        <ele>240.41</ele>
        <time>2019-04-14T07:21:28Z</time>
      </trkpt>
      <trkpt lat="43.39934" lon="1.85787">
        <ele>239.38</ele>
        <time>2019-04-14T07:21:34Z</time>
      </trkpt>
      <trkpt lat="43.39942" lon="1.85813">
        <ele>238.32</ele>
        <time>2019-04-14T07:21:40Z</time>
      </trkpt>
      <trkpt lat="43.39961" lon="1.8583">
        <ele>237.3</ele>
        <time>2019-04-14T07:21:46Z</time>
      </trkpt>
      <trkpt lat="43.39979" lon="1.85844">
        <ele>236.85</ele>
        <time>2019-04-14T07:21:52Z</time>
      </trkpt>
      <trkpt lat="43.39995" lon="1.85859">
        <ele>236.71</ele>
        <time>2019-04-14T07:21:58Z</time>
      </trkpt>
      <trkpt lat="43.40012" lon="1.85874">
        <ele>237.16</ele>
        <time>2019-04-14T07:22:05Z</time>
      </trkpt>
      <trkpt lat="43.40028" lon="1.85887">
        <ele>238.43</ele>
        <time>2019-04-14T07:22:12Z</time>
      </trkpt>
      <trkpt lat="43.40044" lon="1.85903">
        <ele>240.28</ele>
        <time>2019-04-14T07:22:19Z</time>
      </trkpt>
      <trkpt lat="43.40058" lon="1.85919">
        <ele>241.8</ele>
        <time>2019-04-14T07:22:26Z</time>
      </trkpt>
      <trkpt lat="43.40072" lon="1.85938">
        <ele>244.32</ele>
        <time>2019-04-14T07:22:34Z</time>
      </trkpt>
      <trkpt lat="43.40089" lon="1.85955">
        <ele>245.92</ele>
        <time>2019-04-14T07:22:41Z</time>
      </trkpt>
      <trkpt lat="43.40106" lon="1.85972">
        <ele>246.94</ele>
        <time>2019-04-14T07:22:48Z</time>
      </trkpt>
      <trkpt lat="43.4012" lon="1.8599">
        <ele>247.73</ele>
        <time>2019-04-14T07:22:55Z</time>
      </trkpt>
      <trkpt lat="43.40134" lon="1.86007">
        <ele>248.28</ele>
        <time>2019-04-14T07:23:01Z</time>
      </trkpt>
      <trkpt lat="43.40146" lon="1.86026">
        <ele>248.37</ele>
        <time>2019-04-14T07:23:07Z</time>
      </trkpt>
      <trkpt lat="43.4016" lon="1.86046">
        <ele>247.93</ele>
        <time>2019-04-14T07:23:13Z</time>
      </trkpt>
      <trkpt lat="43.40173" lon="1.86067">
        <ele>246.06</ele>
        <time>2019-04-14T07:23:19Z</time>
      </trkpt>
      <trkpt lat="43.40187" lon="1.86088">
        <ele>244.05</ele>
        <time>2019-04-14T07:23:25Z</time>
      </trkpt>
      <trkpt lat="43.40199" lon="1.86108">
        <ele>243.25</ele>
        <time>2019-04-14T07:23:31Z</time>
      </trkpt>
      <trkpt lat="43.40212" lon="1.86128">
        <ele>242.87</ele>
        <time>2019-04-14T07:23:37Z</time>
      </trkpt>
      <trkpt lat="43.40222" lon="1.86151">
        <ele>242.58</ele>
        <time>2019-04-14T07:23:43Z</time>
      </trkpt>
      <trkpt lat="43.4023" lon="1.86174">
        <ele>243.05</ele>
        <time>2019-04-14T07:23:49Z</time>
      </trkpt>
      <trkpt lat="43.40238" lon="1.862">
        <ele>243.83</ele>
        <time>2019-04-14T07:23:56Z</time>
      </trkpt>
      <trkpt lat="43.40234" lon="1.86226">
        <ele>244.54</ele>
        <time>2019-04-14T07:24:03Z</time>
      </trkpt>
      <trkpt lat="43.4022" lon="1.86248">
        <ele>245.98</ele>
        <time>2019-04-14T07:24:11Z</time>
      </trkpt>
      <trkpt lat="43.40204" lon="1.86265">
        <ele>247.55</ele>
        <time>2019-04-14T07:24:19Z</time>
      </trkpt>
      <trkpt lat="43.40187" lon="1.86279">
        <ele>250.23</ele>
        <time>2019-04-14T07:24:27Z</time>
      </trkpt>
      <trkpt lat="43.40171" lon="1.86293">
        <ele>251.67</ele>
        <time>2019-04-14T07:24:34Z</time>
      </trkpt>
      <trkpt lat="43.40156" lon="1.86314">
        <ele>252.96</ele>
        <time>2019-04-14T07:24:42Z</time>
      </trkpt>
      <trkpt lat="43.40143" lon="1.86338">
        <ele>253.68</ele>
        <time>2019-04-14T07:24:50Z</time>
      </trkpt>
      <trkpt lat="43.40133" lon="1.86361">
        <ele>254.14</ele>
        <time>2019-04-14T07:24:57Z</time>
      </trkpt>
      <trkpt lat="43.40121" lon="1.86387">
        <ele>254.83</ele>
        <time>2019-04-14T07:25:05Z</time>
      </trkpt>
      <trkpt lat="43.4011" lon="1.86412">
        <ele>255.93</ele>
        <time>2019-04-14T07:25:13Z</time>
      </trkpt>
      <trkpt lat="43.40099" lon="1.86437">
        <ele>257.28</ele>
        <time>2019-04-14T07:25:21Z</time>
      </trkpt>
      <trkpt lat="43.40086" lon="1.86461">
        <ele>258.83</ele>
        <time>2019-04-14T07:25:29Z</time>
      </trkpt>
      <trkpt lat="43.40072" lon="1.86487">
        <ele>260.28</ele>
        <time>2019-04-14T07:25:37Z</time>
      </trkpt>
      <trkpt lat="43.4006" lon="1.86511">
        <ele>261.22</ele>
        <time>2019-04-14T07:25:45Z</time>
      </trkpt>
      <trkpt lat="43.40049" lon="1.86535">
        <ele>261.93</ele>
        <time>2019-04-14T07:25:52Z</time>
      </trkpt>
      <trkpt lat="43.40037" lon="1.8656">
        <ele>262.37</ele>
        <time>2019-04-14T07:25:59Z</time>
      </trkpt>
      <trkpt lat="43.40026" lon="1.86584">
        <ele>262.95</ele>
        <time>2019-04-14T07:26:06Z</time>
      </trkpt>
      <trkpt lat="43.40014" lon="1.86607">
        <ele>263.57</ele>
        <time>2019-04-14T07:26:13Z</time>
      </trkpt>
      <trkpt lat="43.40002" lon="1.86631">
        <ele>264.03</ele>
        <time>2019-04-14T07:26:20Z</time>
      </trkpt>
      <trkpt lat="43.40001" lon="1.86657">
        <ele>264.1</ele>
        <time>2019-04-14T07:26:27Z</time>
      </trkpt>
      <trkpt lat="43.40015" lon="1.86678">
        <ele>262.75</ele>
        <time>2019-04-14T07:26:33Z</time>
      </trkpt>
      <trkpt lat="43.40029" lon="1.86698">
        <ele>261.47</ele>
        <time>2019-04-14T07:26:39Z</time>
      </trkpt>
      <trkpt lat="43.40044" lon="1.8672">
        <ele>260.44</ele>
        <time>2019-04-14T07:26:46Z</time>
      </trkpt>
      <trkpt lat="43.40058" lon="1.86739">
        <ele>260.23</ele>
        <time>2019-04-14T07:26:52Z</time>
      </trkpt>
      <trkpt lat="43.40073" lon="1.86758">
        <ele>259.78</ele>
        <time>2019-04-14T07:26:58Z</time>
      </trkpt>
      <trkpt lat="43.40086" lon="1.86778">
        <ele>259.8</ele>
        <time>2019-04-14T07:27:04Z</time>
      </trkpt>
      <trkpt lat="43.40101" lon="1.86797">
        <ele>259.86</ele>
        <time>2019-04-14T07:27:10Z</time>
      </trkpt>
      <trkpt lat="43.40115" lon="1.8682">
        <ele>260.04</ele>
        <time>2019-04-14T07:27:17Z</time>
      </trkpt>
      <trkpt lat="43.40128" lon="1.86837">
        <ele>260.69</ele>
        <time>2019-04-14T07:27:23Z</time>
      </trkpt>
      <trkpt lat="43.40143" lon="1.86856">
        <ele>260.92</ele>
        <time>2019-04-14T07:27:29Z</time>
      </trkpt>
      <trkpt lat="43.40156" lon="1.86875">
        <ele>261.08</ele>
        <time>2019-04-14T07:27:35Z</time>
      </trkpt>
      <trkpt lat="43.40169" lon="1.86896">
        <ele>260.68</ele>
        <time>2019-04-14T07:27:41Z</time>
      </trkpt>
      <trkpt lat="43.40182" lon="1.86915">
        <ele>260.11</ele>
        <time>2019-04-14T07:27:47Z</time>
      </trkpt>
      <trkpt lat="43.40198" lon="1.8693">
        <ele>260.07</ele>
        <time>2019-04-14T07:27:54Z</time>
      </trkpt>
      <trkpt lat="43.40198" lon="1.86951">
        <ele>260.76</ele>
        <time>2019-04-14T07:28:04Z</time>
      </trkpt>
      <trkpt lat="43.40185" lon="1.86971">
        <ele>261.06</ele>
        <time>2019-04-14T07:28:10Z</time>
      </trkpt>
      <trkpt lat="43.40171" lon="1.86993">
        <ele>261.34</ele>
        <time>2019-04-14T07:28:17Z</time>
      </trkpt>
      <trkpt lat="43.40159" lon="1.87013">
        <ele>261.94</ele>
        <time>2019-04-14T07:28:23Z</time>
      </trkpt>
      <trkpt lat="43.40146" lon="1.87036">
        <ele>262.53</ele>
        <time>2019-04-14T07:28:30Z</time>
      </trkpt>
      <trkpt lat="43.40133" lon="1.87057">
        <ele>263.09</ele>
        <time>2019-04-14T07:28:37Z</time>
      </trkpt>
      <trkpt lat="43.4012" lon="1.87079">
        <ele>263.68</ele>
        <time>2019-04-14T07:28:44Z</time>
      </trkpt>
      <trkpt lat="43.40107" lon="1.87103">
        <ele>264.32</ele>
        <time>2019-04-14T07:28:51Z</time>
      </trkpt>
      <trkpt lat="43.40096" lon="1.87125">
        <ele>265.33</ele>
        <time>2019-04-14T07:28:58Z</time>
      </trkpt>
      <trkpt lat="43.40089" lon="1.87152">
        <ele>265.97</ele>
        <time>2019-04-14T07:29:05Z</time>
      </trkpt>
      <trkpt lat="43.40097" lon="1.87174">
        <ele>266.99</ele>
        <time>2019-04-14T07:29:13Z</time>
      </trkpt>
      <trkpt lat="43.40116" lon="1.87178">
        <ele>268.03</ele>
        <time>2019-04-14T07:29:20Z</time>
      </trkpt>
      <trkpt lat="43.40136" lon="1.87174">
        <ele>268.81</ele>
        <time>2019-04-14T07:29:27Z</time>
      </trkpt>
      <trkpt lat="43.40153" lon="1.87165">
        <ele>269.75</ele>
        <time>2019-04-14T07:29:34Z</time>
      </trkpt>
      <trkpt lat="43.40171" lon="1.8715">
        <ele>270.36</ele>
        <time>2019-04-14T07:29:41Z</time>
      </trkpt>
      <trkpt lat="43.40185" lon="1.8713">
        <ele>270.19</ele>
        <time>2019-04-14T07:29:48Z</time>
      </trkpt>
      <trkpt lat="43.40202" lon="1.87125">
        <ele>270.09</ele>
        <time>2019-04-14T07:29:54Z</time>
      </trkpt>
      <trkpt lat="43.40221" lon="1.87133">
        <ele>269.75</ele>
        <time>2019-04-14T07:30:00Z</time>
      </trkpt>
      <trkpt lat="43.4024" lon="1.87142">
        <ele>268.33</ele>
        <time>2019-04-14T07:30:06Z</time>
      </trkpt>
      <trkpt lat="43.40258" lon="1.87151">
        <ele>267.1</ele>
        <time>2019-04-14T07:30:12Z</time>
      </trkpt>
      <trkpt lat="43.40275" lon="1.87161">
        <ele>266.81</ele>
        <time>2019-04-14T07:30:18Z</time>
      </trkpt>
      <trkpt lat="43.40292" lon="1.87177">
        <ele>266.99</ele>
        <time>2019-04-14T07:30:25Z</time>
      </trkpt>
      <trkpt lat="43.40303" lon="1.87197">
        <ele>267.95</ele>
        <time>2019-04-14T07:30:32Z</time>
      </trkpt>
      <trkpt lat="43.4032" lon="1.87206">
        <ele>268.22</ele>
        <time>2019-04-14T07:30:39Z</time>
      </trkpt>
      <trkpt lat="43.40335" lon="1.87217">
        <ele>268.23</ele>
        <time>2019-04-14T07:30:48Z</time>
      </trkpt>
      <trkpt lat="43.40352" lon="1.87226">
        <ele>269.68</ele>
        <time>2019-04-14T07:30:54Z</time>
      </trkpt>
      <trkpt lat="43.40372" lon="1.87232">
        <ele>270.51</ele>
        <time>2019-04-14T07:31:01Z</time>
      </trkpt>
      <trkpt lat="43.40391" lon="1.87239">
        <ele>271.18</ele>
        <time>2019-04-14T07:31:08Z</time>
      </trkpt>
      <trkpt lat="43.40405" lon="1.87253">
        <ele>272.25</ele>
        <time>2019-04-14T07:31:15Z</time>
      </trkpt>
      <trkpt lat="43.40419" lon="1.87269">
        <ele>273.07</ele>
        <time>2019-04-14T07:31:22Z</time>
      </trkpt>
      <trkpt lat="43.4043" lon="1.87292">
        <ele>274.11</ele>
        <time>2019-04-14T07:31:30Z</time>
      </trkpt>
      <trkpt lat="43.40449" lon="1.8729">
        <ele>274.29</ele>
        <time>2019-04-14T07:31:37Z</time>
      </trkpt>
      <trkpt lat="43.40463" lon="1.87272">
        <ele>273.99</ele>
        <time>2019-04-14T07:31:44Z</time>
      </trkpt>
      <trkpt lat="43.4048" lon="1.87258">
        <ele>273.61</ele>
        <time>2019-04-14T07:31:50Z</time>
      </trkpt>
      <trkpt lat="43.40498" lon="1.87247">
        <ele>273.08</ele>
        <time>2019-04-14T07:31:56Z</time>
      </trkpt>
      <trkpt lat="43.40516" lon="1.87236">
        <ele>272.28</ele>
        <time>2019-04-14T07:32:02Z</time>
      </trkpt>
      <trkpt lat="43.40534" lon="1.87222">
        <ele>271.64</ele>
        <time>2019-04-14T07:32:08Z</time>
      </trkpt>
      <trkpt lat="43.40552" lon="1.8721">
        <ele>270.93</ele>
        <time>2019-04-14T07:32:14Z</time>
      </trkpt>
      <trkpt lat="43.40568" lon="1.87192">
        <ele>270.03</ele>
        <time>2019-04-14T07:32:20Z</time>
      </trkpt>
      <trkpt lat="43.40582" lon="1.87173">
        <ele>269.35</ele>
        <time>2019-04-14T07:32:26Z</time>
      </trkpt>
      <trkpt lat="43.40597" lon="1.87159">
        <ele>269.13</ele>
        <time>2019-04-14T07:32:33Z</time>
      </trkpt>
      <trkpt lat="43.40616" lon="1.87161">
        <ele>268.61</ele>
        <time>2019-04-14T07:32:39Z</time>
      </trkpt>
      <trkpt lat="43.40636" lon="1.87165">
        <ele>268.14</ele>
        <time>2019-04-14T07:32:46Z</time>
      </trkpt>
      <trkpt lat="43.40632" lon="1.87138">
        <ele>268.11</ele>
        <time>2019-04-14T07:32:53Z</time>
      </trkpt>
      <trkpt lat="43.40625" lon="1.87113">
        <ele>268.47</ele>
        <time>2019-04-14T07:32:59Z</time>
      </trkpt>
      <trkpt lat="43.40616" lon="1.8709">
        <ele>268.79</ele>
        <time>2019-04-14T07:33:05Z</time>
      </trkpt>
      <trkpt lat="43.40607" lon="1.87068">
        <ele>269.08</ele>
        <time>2019-04-14T07:33:11Z</time>
      </trkpt>
      <trkpt lat="43.40594" lon="1.87044">
        <ele>269.66</ele>
        <time>2019-04-14T07:33:18Z</time>
      </trkpt>
      <trkpt lat="43.40583" lon="1.87022">
        <ele>270.06</ele>
        <time>2019-04-14T07:33:24Z</time>
      </trkpt>
      <trkpt lat="43.40575" lon="1.86999">
        <ele>270.87</ele>
        <time>2019-04-14T07:33:30Z</time>
      </trkpt>
      <trkpt lat="43.40569" lon="1.86975">
        <ele>271.24</ele>
        <time>2019-04-14T07:33:36Z</time>
      </trkpt>
      <trkpt lat="43.40562" lon="1.8695">
        <ele>270.74</ele>
        <time>2019-04-14T07:33:42Z</time>
      </trkpt>
      <trkpt lat="43.40555" lon="1.86926">
        <ele>270.3</ele>
        <time>2019-04-14T07:33:48Z</time>
      </trkpt>
      <trkpt lat="43.40545" lon="1.86904">
        <ele>269.61</ele>
        <time>2019-04-14T07:33:54Z</time>
      </trkpt>
      <trkpt lat="43.40528" lon="1.86884">
        <ele>268.34</ele>
        <time>2019-04-14T07:34:00Z</time>
      </trkpt>
      <trkpt lat="43.40511" lon="1.86866">
        <ele>266.22</ele>
        <time>2019-04-14T07:34:05Z</time>
      </trkpt>
      <trkpt lat="43.40498" lon="1.86848">
        <ele>263.87</ele>
        <time>2019-04-14T07:34:10Z</time>
      </trkpt>
      <trkpt lat="43.40485" lon="1.86827">
        <ele>262.31</ele>
        <time>2019-04-14T07:34:16Z</time>
      </trkpt>
      <trkpt lat="43.40472" lon="1.86804">
        <ele>260.88</ele>
        <time>2019-04-14T07:34:22Z</time>
      </trkpt>
      <trkpt lat="43.40464" lon="1.86779">
        <ele>259.13</ele>
        <time>2019-04-14T07:34:28Z</time>
      </trkpt>
      <trkpt lat="43.40457" lon="1.86755">
        <ele>256.63</ele>
        <time>2019-04-14T07:34:34Z</time>
      </trkpt>
      <trkpt lat="43.40456" lon="1.86729">
        <ele>254.29</ele>
        <time>2019-04-14T07:34:40Z</time>
      </trkpt>
      <trkpt lat="43.40447" lon="1.86703">
        <ele>252.32</ele>
        <time>2019-04-14T07:34:46Z</time>
      </trkpt>
      <trkpt lat="43.40435" lon="1.86683">
        <ele>250.36</ele>
        <time>2019-04-14T07:34:51Z</time>
      </trkpt>
      <trkpt lat="43.40421" lon="1.86659">
        <ele>248.21</ele>
        <time>2019-04-14T07:34:57Z</time>
      </trkpt>
      <trkpt lat="43.40408" lon="1.86638">
        <ele>246.88</ele>
        <time>2019-04-14T07:35:03Z</time>
      </trkpt>
      <trkpt lat="43.40394" lon="1.86617">
        <ele>246.08</ele>
        <time>2019-04-14T07:35:09Z</time>
      </trkpt>
      <trkpt lat="43.40384" lon="1.86594">
        <ele>245.38</ele>
        <time>2019-04-14T07:35:15Z</time>
      </trkpt>
      <trkpt lat="43.40378" lon="1.86566">
        <ele>245.38</ele>
        <time>2019-04-14T07:35:22Z</time>
      </trkpt>
      <trkpt lat="43.40374" lon="1.86542">
        <ele>246.12</ele>
        <time>2019-04-14T07:35:29Z</time>
      </trkpt>
      <trkpt lat="43.4037" lon="1.86514">
        <ele>249.08</ele>
        <time>2019-04-14T07:35:38Z</time>
      </trkpt>
      <trkpt lat="43.40366" lon="1.86486">
        <ele>250.72</ele>
        <time>2019-04-14T07:35:46Z</time>
      </trkpt>
      <trkpt lat="43.40358" lon="1.86459">
        <ele>251.92</ele>
        <time>2019-04-14T07:35:53Z</time>
      </trkpt>
      <trkpt lat="43.40348" lon="1.86432">
        <ele>253.02</ele>
        <time>2019-04-14T07:36:00Z</time>
      </trkpt>
      <trkpt lat="43.4035" lon="1.86409">
        <ele>253.1</ele>
        <time>2019-04-14T07:36:07Z</time>
      </trkpt>
      <trkpt lat="43.40357" lon="1.86383">
        <ele>252.98</ele>
        <time>2019-04-14T07:36:14Z</time>
      </trkpt>
      <trkpt lat="43.40363" lon="1.86358">
        <ele>253.11</ele>
        <time>2019-04-14T07:36:20Z</time>
      </trkpt>
      <trkpt lat="43.4037" lon="1.86333">
        <ele>252.69</ele>
        <time>2019-04-14T07:36:26Z</time>
      </trkpt>
      <trkpt lat="43.40381" lon="1.86309">
        <ele>252.08</ele>
        <time>2019-04-14T07:36:32Z</time>
      </trkpt>
      <trkpt lat="43.40394" lon="1.86288">
        <ele>251.39</ele>
        <time>2019-04-14T07:36:38Z</time>
      </trkpt>
      <trkpt lat="43.40407" lon="1.86267">
        <ele>250.84</ele>
        <time>2019-04-14T07:36:44Z</time>
      </trkpt>
      <trkpt lat="43.40421" lon="1.86248">
        <ele>250.39</ele>
        <time>2019-04-14T07:36:50Z</time>
      </trkpt>
      <trkpt lat="43.40436" lon="1.8623">
        <ele>250.3</ele>
        <time>2019-04-14T07:36:56Z</time>
      </trkpt>
      <trkpt lat="43.4045" lon="1.86212">
        <ele>250.12</ele>
        <time>2019-04-14T07:37:02Z</time>
      </trkpt>
      <trkpt lat="43.40463" lon="1.86193">
        <ele>249.64</ele>
        <time>2019-04-14T07:37:08Z</time>
      </trkpt>
      <trkpt lat="43.40474" lon="1.8617">
        <ele>249.75</ele>
        <time>2019-04-14T07:37:15Z</time>
      </trkpt>
      <trkpt lat="43.40482" lon="1.86143">
        <ele>250</ele>
        <time>2019-04-14T07:37:22Z</time>
      </trkpt>
      <trkpt lat="43.40486" lon="1.86114">
        <ele>250</ele>
        <time>2019-04-14T07:37:29Z</time>
      </trkpt>
      <trkpt lat="43.40487" lon="1.86088">
        <ele>250.1</ele>
        <time>2019-04-14T07:37:35Z</time>
      </trkpt>
      <trkpt lat="43.40488" lon="1.8606">
        <ele>250.24</ele>
        <time>2019-04-14T07:37:41Z</time>
      </trkpt>
      <trkpt lat="43.40492" lon="1.86034">
        <ele>250.12</ele>
        <time>2019-04-14T07:37:47Z</time>
      </trkpt>
      <trkpt lat="43.40498" lon="1.86007">
        <ele>249.88</ele>
        <time>2019-04-14T07:37:53Z</time>
      </trkpt>
      <trkpt lat="43.40505" lon="1.8598">
        <ele>249.15</ele>
        <time>2019-04-14T07:37:59Z</time>
      </trkpt>
      <trkpt lat="43.40512" lon="1.85953">
        <ele>248.52</ele>
        <time>2019-04-14T07:38:05Z</time>
      </trkpt>
      <trkpt lat="43.4052" lon="1.85926">
        <ele>247.87</ele>
        <time>2019-04-14T07:38:11Z</time>
      </trkpt>
      <trkpt lat="43.40527" lon="1.85902">
        <ele>247.14</ele>
        <time>2019-04-14T07:38:17Z</time>
      </trkpt>
      <trkpt lat="43.40535" lon="1.85877">
        <ele>246.29</ele>
        <time>2019-04-14T07:38:23Z</time>
      </trkpt>
      <trkpt lat="43.40542" lon="1.85853">
        <ele>245.25</ele>
        <time>2019-04-14T07:38:29Z</time>
      </trkpt>
      <trkpt lat="43.40549" lon="1.85826">
        <ele>244.77</ele>
        <time>2019-04-14T07:38:35Z</time>
      </trkpt>
      <trkpt lat="43.40556" lon="1.85799">
        <ele>244.32</ele>
        <time>2019-04-14T07:38:41Z</time>
      </trkpt>
      <trkpt lat="43.40563" lon="1.85774">
        <ele>244.25</ele>
        <time>2019-04-14T07:38:47Z</time>
      </trkpt>
      <trkpt lat="43.40569" lon="1.85747">
        <ele>244.27</ele>
        <time>2019-04-14T07:38:53Z</time>
      </trkpt>
      <trkpt lat="43.40577" lon="1.85721">
        <ele>244.09</ele>
        <time>2019-04-14T07:38:59Z</time>
      </trkpt>
      <trkpt lat="43.40586" lon="1.85696">
        <ele>244.22</ele>
        <time>2019-04-14T07:39:05Z</time>
      </trkpt>
      <trkpt lat="43.40598" lon="1.85678">
        <ele>244.59</ele>
        <time>2019-04-14T07:39:11Z</time>
      </trkpt>
      <trkpt lat="43.40611" lon="1.8566">
        <ele>245.23</ele>
        <time>2019-04-14T07:39:17Z</time>
      </trkpt>
      <trkpt lat="43.40625" lon="1.8564">
        <ele>245.8</ele>
        <time>2019-04-14T07:39:24Z</time>
      </trkpt>
      <trkpt lat="43.40641" lon="1.85623">
        <ele>245.76</ele>
        <time>2019-04-14T07:39:30Z</time>
      </trkpt>
      <trkpt lat="43.40656" lon="1.85606">
        <ele>245.35</ele>
        <time>2019-04-14T07:39:37Z</time>
      </trkpt>
      <trkpt lat="43.40673" lon="1.85592">
        <ele>244.24</ele>
        <time>2019-04-14T07:39:44Z</time>
      </trkpt>
      <trkpt lat="43.4069" lon="1.85575">
        <ele>243.28</ele>
        <time>2019-04-14T07:39:52Z</time>
      </trkpt>
      <trkpt lat="43.40706" lon="1.85548">
        <ele>241.26</ele>
        <time>2019-04-14T07:40:00Z</time>
      </trkpt>
      <trkpt lat="43.40725" lon="1.85538">
        <ele>240.01</ele>
        <time>2019-04-14T07:40:07Z</time>
      </trkpt>
      <trkpt lat="43.40741" lon="1.85544">
        <ele>240.65</ele>
        <time>2019-04-14T07:40:17Z</time>
      </trkpt>
      <trkpt lat="43.40758" lon="1.85562">
        <ele>241.26</ele>
        <time>2019-04-14T07:40:24Z</time>
      </trkpt>
      <trkpt lat="43.40777" lon="1.85584">
        <ele>241.81</ele>
        <time>2019-04-14T07:40:31Z</time>
      </trkpt>
      <trkpt lat="43.40795" lon="1.85603">
        <ele>242.01</ele>
        <time>2019-04-14T07:40:37Z</time>
      </trkpt>
      <trkpt lat="43.40811" lon="1.85624">
        <ele>241.69</ele>
        <time>2019-04-14T07:40:43Z</time>
      </trkpt>
      <trkpt lat="43.40827" lon="1.85646">
        <ele>240.78</ele>
        <time>2019-04-14T07:40:49Z</time>
      </trkpt>
      <trkpt lat="43.40843" lon="1.85668">
        <ele>240.08</ele>
        <time>2019-04-14T07:40:55Z</time>
      </trkpt>
      <trkpt lat="43.40858" lon="1.85688">
        <ele>239.31</ele>
        <time>2019-04-14T07:41:01Z</time>
      </trkpt>
      <trkpt lat="43.40877" lon="1.85705">
        <ele>238.54</ele>
        <time>2019-04-14T07:41:07Z</time>
      </trkpt>
      <trkpt lat="43.40896" lon="1.85716">
        <ele>237.94</ele>
        <time>2019-04-14T07:41:12Z</time>
      </trkpt>
      <trkpt lat="43.40914" lon="1.85729">
        <ele>236.37</ele>
        <time>2019-04-14T07:41:17Z</time>
      </trkpt>
      <trkpt lat="43.40934" lon="1.85743">
        <ele>234.06</ele>
        <time>2019-04-14T07:41:23Z</time>
      </trkpt>
      <trkpt lat="43.40951" lon="1.85755">
        <ele>232.33</ele>
        <time>2019-04-14T07:41:28Z</time>
      </trkpt>
      <trkpt lat="43.40967" lon="1.85767">
        <ele>230.47</ele>
        <time>2019-04-14T07:41:33Z</time>
      </trkpt>
      <trkpt lat="43.40985" lon="1.85781">
        <ele>228.62</ele>
        <time>2019-04-14T07:41:39Z</time>
      </trkpt>
      <trkpt lat="43.40999" lon="1.85794">
        <ele>228.07</ele>
        <time>2019-04-14T07:41:45Z</time>
      </trkpt>
      <trkpt lat="43.41014" lon="1.8581">
        <ele>228.97</ele>
        <time>2019-04-14T07:41:53Z</time>
      </trkpt>
      <trkpt lat="43.41029" lon="1.85821">
        <ele>232.11</ele>
        <time>2019-04-14T07:42:02Z</time>
      </trkpt>
      <trkpt lat="43.41047" lon="1.85831">
        <ele>235.84</ele>
        <time>2019-04-14T07:42:13Z</time>
      </trkpt>
      <trkpt lat="43.41046" lon="1.85854">
        <ele>240.01</ele>
        <time>2019-04-14T07:42:24Z</time>
      </trkpt>
      <trkpt lat="43.4104" lon="1.85877">
        <ele>242.51</ele>
        <time>2019-04-14T07:42:34Z</time>
      </trkpt>
      <trkpt lat="43.41034" lon="1.85905">
        <ele>244.66</ele>
        <time>2019-04-14T07:42:43Z</time>
      </trkpt>
      <trkpt lat="43.41026" lon="1.8593">
        <ele>245.72</ele>
        <time>2019-04-14T07:42:51Z</time>
      </trkpt>
      <trkpt lat="43.41018" lon="1.85955">
        <ele>246.64</ele>
        <time>2019-04-14T07:42:59Z</time>
      </trkpt>
      <trkpt lat="43.4101" lon="1.85982">
        <ele>247.55</ele>
        <time>2019-04-14T07:43:08Z</time>
      </trkpt>
      <trkpt lat="43.41002" lon="1.8601">
        <ele>248.46</ele>
        <time>2019-04-14T07:43:17Z</time>
      </trkpt>
      <trkpt lat="43.40994" lon="1.86039">
        <ele>249.23</ele>
        <time>2019-04-14T07:43:26Z</time>
      </trkpt>
      <trkpt lat="43.40987" lon="1.86069">
        <ele>250.13</ele>
        <time>2019-04-14T07:43:34Z</time>
      </trkpt>
      <trkpt lat="43.40981" lon="1.86096">
        <ele>250.63</ele>
        <time>2019-04-14T07:43:42Z</time>
      </trkpt>
      <trkpt lat="43.40976" lon="1.86125">
        <ele>251.3</ele>
        <time>2019-04-14T07:43:50Z</time>
      </trkpt>
      <trkpt lat="43.4097" lon="1.86154">
        <ele>251.58</ele>
        <time>2019-04-14T07:43:58Z</time>
      </trkpt>
      <trkpt lat="43.40964" lon="1.86184">
        <ele>251.88</ele>
        <time>2019-04-14T07:44:06Z</time>
      </trkpt>
      <trkpt lat="43.40958" lon="1.86212">
        <ele>251.97</ele>
        <time>2019-04-14T07:44:13Z</time>
      </trkpt>
      <trkpt lat="43.40953" lon="1.86244">
        <ele>252.13</ele>
        <time>2019-04-14T07:44:20Z</time>
      </trkpt>
      <trkpt lat="43.40948" lon="1.86273">
        <ele>252.42</ele>
        <time>2019-04-14T07:44:27Z</time>
      </trkpt>
      <trkpt lat="43.40945" lon="1.86305">
        <ele>252.35</ele>
        <time>2019-04-14T07:44:34Z</time>
      </trkpt>
      <trkpt lat="43.40941" lon="1.86334">
        <ele>252.77</ele>
        <time>2019-04-14T07:44:41Z</time>
      </trkpt>
      <trkpt lat="43.40937" lon="1.86367">
        <ele>253.38</ele>
        <time>2019-04-14T07:44:49Z</time>
      </trkpt>
      <trkpt lat="43.40933" lon="1.86395">
        <ele>253.89</ele>
        <time>2019-04-14T07:44:56Z</time>
      </trkpt>
      <trkpt lat="43.40928" lon="1.86422">
        <ele>254.42</ele>
        <time>2019-04-14T07:45:03Z</time>
      </trkpt>
      <trkpt lat="43.40924" lon="1.8645">
        <ele>255.06</ele>
        <time>2019-04-14T07:45:10Z</time>
      </trkpt>
      <trkpt lat="43.40919" lon="1.86479">
        <ele>255.95</ele>
        <time>2019-04-14T07:45:18Z</time>
      </trkpt>
      <trkpt lat="43.40913" lon="1.8651">
        <ele>256.51</ele>
        <time>2019-04-14T07:45:25Z</time>
      </trkpt>
      <trkpt lat="43.40907" lon="1.86539">
        <ele>256.81</ele>
        <time>2019-04-14T07:45:32Z</time>
      </trkpt>
      <trkpt lat="43.40903" lon="1.86565">
        <ele>257.04</ele>
        <time>2019-04-14T07:45:39Z</time>
      </trkpt>
      <trkpt lat="43.40898" lon="1.86593">
        <ele>257.04</ele>
        <time>2019-04-14T07:45:47Z</time>
      </trkpt>
      <trkpt lat="43.40893" lon="1.86624">
        <ele>257.18</ele>
        <time>2019-04-14T07:45:54Z</time>
      </trkpt>
      <trkpt lat="43.40888" lon="1.8665">
        <ele>257.11</ele>
        <time>2019-04-14T07:46:01Z</time>
      </trkpt>
      <trkpt lat="43.40882" lon="1.86684">
        <ele>256.56</ele>
        <time>2019-04-14T07:46:08Z</time>
      </trkpt>
      <trkpt lat="43.40878" lon="1.86716">
        <ele>256.09</ele>
        <time>2019-04-14T07:46:15Z</time>
      </trkpt>
      <trkpt lat="43.40873" lon="1.86744">
        <ele>255.59</ele>
        <time>2019-04-14T07:46:21Z</time>
      </trkpt>
      <trkpt lat="43.40867" lon="1.8677">
        <ele>254.89</ele>
        <time>2019-04-14T07:46:28Z</time>
      </trkpt>
      <trkpt lat="43.40862" lon="1.86798">
        <ele>254.38</ele>
        <time>2019-04-14T07:46:35Z</time>
      </trkpt>
      <trkpt lat="43.40856" lon="1.8683">
        <ele>254.4</ele>
        <time>2019-04-14T07:46:42Z</time>
      </trkpt>
      <trkpt lat="43.40848" lon="1.86856">
        <ele>254.56</ele>
        <time>2019-04-14T07:46:49Z</time>
      </trkpt>
      <trkpt lat="43.40835" lon="1.86882">
        <ele>255.18</ele>
        <time>2019-04-14T07:46:57Z</time>
      </trkpt>
      <trkpt lat="43.40823" lon="1.8691">
        <ele>256.2</ele>
        <time>2019-04-14T07:47:04Z</time>
      </trkpt>
      <trkpt lat="43.40809" lon="1.86933">
        <ele>257.34</ele>
        <time>2019-04-14T07:47:11Z</time>
      </trkpt>
      <trkpt lat="43.40798" lon="1.86956">
        <ele>258.34</ele>
        <time>2019-04-14T07:47:18Z</time>
      </trkpt>
      <trkpt lat="43.40787" lon="1.86979">
        <ele>259.07</ele>
        <time>2019-04-14T07:47:25Z</time>
      </trkpt>
      <trkpt lat="43.40778" lon="1.87006">
        <ele>259.68</ele>
        <time>2019-04-14T07:47:32Z</time>
      </trkpt>
      <trkpt lat="43.40771" lon="1.87035">
        <ele>260.35</ele>
        <time>2019-04-14T07:47:40Z</time>
      </trkpt>
      <trkpt lat="43.40765" lon="1.87064">
        <ele>261.08</ele>
        <time>2019-04-14T07:47:48Z</time>
      </trkpt>
      <trkpt lat="43.4076" lon="1.87092">
        <ele>261.94</ele>
        <time>2019-04-14T07:47:56Z</time>
      </trkpt>
      <trkpt lat="43.40754" lon="1.87119">
        <ele>262.83</ele>
        <time>2019-04-14T07:48:04Z</time>
      </trkpt>
      <trkpt lat="43.40748" lon="1.87149">
        <ele>264.11</ele>
        <time>2019-04-14T07:48:12Z</time>
      </trkpt>
      <trkpt lat="43.40744" lon="1.87176">
        <ele>264.54</ele>
        <time>2019-04-14T07:48:20Z</time>
      </trkpt>
      <trkpt lat="43.40749" lon="1.87206">
        <ele>265.47</ele>
        <time>2019-04-14T07:48:28Z</time>
      </trkpt>
      <trkpt lat="43.40769" lon="1.87218">
        <ele>266.29</ele>
        <time>2019-04-14T07:48:36Z</time>
      </trkpt>
      <trkpt lat="43.40787" lon="1.87224">
        <ele>266.86</ele>
        <time>2019-04-14T07:48:43Z</time>
      </trkpt>
      <trkpt lat="43.40806" lon="1.87229">
        <ele>267.28</ele>
        <time>2019-04-14T07:48:50Z</time>
      </trkpt>
      <trkpt lat="43.40824" lon="1.8723">
        <ele>268.03</ele>
        <time>2019-04-14T07:48:57Z</time>
      </trkpt>
      <trkpt lat="43.40842" lon="1.87231">
        <ele>268.48</ele>
        <time>2019-04-14T07:49:04Z</time>
      </trkpt>
      <trkpt lat="43.40861" lon="1.87232">
        <ele>269</ele>
        <time>2019-04-14T07:49:11Z</time>
      </trkpt>
      <trkpt lat="43.40882" lon="1.87233">
        <ele>269.61</ele>
        <time>2019-04-14T07:49:18Z</time>
      </trkpt>
      <trkpt lat="43.40901" lon="1.87234">
        <ele>269.74</ele>
        <time>2019-04-14T07:49:24Z</time>
      </trkpt>
      <trkpt lat="43.40921" lon="1.87236">
        <ele>269.07</ele>
        <time>2019-04-14T07:49:30Z</time>
      </trkpt>
      <trkpt lat="43.40942" lon="1.87234">
        <ele>268.11</ele>
        <time>2019-04-14T07:49:37Z</time>
      </trkpt>
      <trkpt lat="43.40963" lon="1.87234">
        <ele>267.58</ele>
        <time>2019-04-14T07:49:45Z</time>
      </trkpt>
      <trkpt lat="43.40984" lon="1.87231">
        <ele>267.1</ele>
        <time>2019-04-14T07:49:53Z</time>
      </trkpt>
      <trkpt lat="43.41004" lon="1.87229">
        <ele>266.68</ele>
        <time>2019-04-14T07:49:59Z</time>
      </trkpt>
      <trkpt lat="43.41022" lon="1.87227">
        <ele>266.08</ele>
        <time>2019-04-14T07:50:05Z</time>
      </trkpt>
      <trkpt lat="43.41037" lon="1.87247">
        <ele>266.61</ele>
        <time>2019-04-14T07:50:13Z</time>
      </trkpt>
      <trkpt lat="43.4105" lon="1.87267">
        <ele>267.03</ele>
        <time>2019-04-14T07:50:20Z</time>
      </trkpt>
      <trkpt lat="43.4106" lon="1.8729">
        <ele>268.22</ele>
        <time>2019-04-14T07:50:28Z</time>
      </trkpt>
      <trkpt lat="43.41069" lon="1.87314">
        <ele>270.13</ele>
        <time>2019-04-14T07:50:36Z</time>
      </trkpt>
      <trkpt lat="43.41073" lon="1.87342">
        <ele>271.49</ele>
        <time>2019-04-14T07:50:44Z</time>
      </trkpt>
      <trkpt lat="43.41075" lon="1.8737">
        <ele>272.63</ele>
        <time>2019-04-14T07:50:52Z</time>
      </trkpt>
      <trkpt lat="43.41063" lon="1.87389">
        <ele>273.59</ele>
        <time>2019-04-14T07:50:59Z</time>
      </trkpt>
      <trkpt lat="43.41042" lon="1.87399">
        <ele>274.21</ele>
        <time>2019-04-14T07:51:06Z</time>
      </trkpt>
      <trkpt lat="43.41024" lon="1.87407">
        <ele>274.4</ele>
        <time>2019-04-14T07:51:13Z</time>
      </trkpt>
      <trkpt lat="43.41005" lon="1.87419">
        <ele>274.5</ele>
        <time>2019-04-14T07:51:21Z</time>
      </trkpt>
      <trkpt lat="43.40988" lon="1.87432">
        <ele>274.76</ele>
        <time>2019-04-14T07:51:29Z</time>
      </trkpt>
      <trkpt lat="43.40968" lon="1.8744">
        <ele>275.13</ele>
        <time>2019-04-14T07:51:38Z</time>
      </trkpt>
      <trkpt lat="43.40948" lon="1.87454">
        <ele>275.63</ele>
        <time>2019-04-14T07:51:47Z</time>
      </trkpt>
      <trkpt lat="43.40927" lon="1.87465">
        <ele>275.76</ele>
        <time>2019-04-14T07:51:55Z</time>
      </trkpt>
      <trkpt lat="43.40906" lon="1.87481">
        <ele>275.71</ele>
        <time>2019-04-14T07:52:02Z</time>
      </trkpt>
      <trkpt lat="43.40888" lon="1.87494">
        <ele>275.94</ele>
        <time>2019-04-14T07:52:09Z</time>
      </trkpt>
      <trkpt lat="43.40869" lon="1.87507">
        <ele>276.19</ele>
        <time>2019-04-14T07:52:16Z</time>
      </trkpt>
      <trkpt lat="43.40851" lon="1.8752">
        <ele>276.38</ele>
        <time>2019-04-14T07:52:23Z</time>
      </trkpt>
      <trkpt lat="43.40829" lon="1.87527">
        <ele>276.02</ele>
        <time>2019-04-14T07:52:30Z</time>
      </trkpt>
      <trkpt lat="43.40805" lon="1.87524">
        <ele>275.8</ele>
        <time>2019-04-14T07:52:38Z</time>
      </trkpt>
      <trkpt lat="43.40788" lon="1.87511">
        <ele>275.46</ele>
        <time>2019-04-14T07:52:46Z</time>
      </trkpt>
      <trkpt lat="43.40778" lon="1.87489">
        <ele>274.97</ele>
        <time>2019-04-14T07:52:53Z</time>
      </trkpt>
      <trkpt lat="43.40785" lon="1.87465">
        <ele>273.68</ele>
        <time>2019-04-14T07:53:00Z</time>
      </trkpt>
      <trkpt lat="43.40792" lon="1.87435">
        <ele>271.59</ele>
        <time>2019-04-14T07:53:08Z</time>
      </trkpt>
      <trkpt lat="43.40793" lon="1.87403">
        <ele>270.65</ele>
        <time>2019-04-14T07:53:14Z</time>
      </trkpt>
      <trkpt lat="43.40785" lon="1.87367">
        <ele>270.01</ele>
        <time>2019-04-14T07:53:20Z</time>
      </trkpt>
      <trkpt lat="43.40777" lon="1.87364">
        <ele>269.18</ele>
        <time>2019-04-14T07:53:27Z</time>
      </trkpt>
      <trkpt lat="43.4078" lon="1.87388">
        <ele>267.73</ele>
        <time>2019-04-14T07:53:33Z</time>
      </trkpt>
      <trkpt lat="43.40776" lon="1.87415">
        <ele>266.22</ele>
        <time>2019-04-14T07:53:39Z</time>
      </trkpt>
      <trkpt lat="43.40767" lon="1.87437">
        <ele>264.33</ele>
        <time>2019-04-14T07:53:45Z</time>
      </trkpt>
      <trkpt lat="43.40753" lon="1.87455">
        <ele>262.36</ele>
        <time>2019-04-14T07:53:50Z</time>
      </trkpt>
      <trkpt lat="43.40739" lon="1.87474">
        <ele>259.47</ele>
        <time>2019-04-14T07:53:57Z</time>
      </trkpt>
      <trkpt lat="43.40723" lon="1.87498">
        <ele>256.95</ele>
        <time>2019-04-14T07:54:03Z</time>
      </trkpt>
      <trkpt lat="43.4071" lon="1.87519">
        <ele>255.21</ele>
        <time>2019-04-14T07:54:08Z</time>
      </trkpt>
      <trkpt lat="43.40697" lon="1.87544">
        <ele>252.93</ele>
        <time>2019-04-14T07:54:14Z</time>
      </trkpt>
      <trkpt lat="43.40684" lon="1.87569">
        <ele>250.93</ele>
        <time>2019-04-14T07:54:20Z</time>
      </trkpt>
      <trkpt lat="43.40676" lon="1.87599">
        <ele>248.23</ele>
        <time>2019-04-14T07:54:25Z</time>
      </trkpt>
      <trkpt lat="43.40669" lon="1.87634">
        <ele>245.36</ele>
        <time>2019-04-14T07:54:30Z</time>
      </trkpt>
      <trkpt lat="43.40664" lon="1.87667">
        <ele>242.37</ele>
        <time>2019-04-14T07:54:35Z</time>
      </trkpt>
      <trkpt lat="43.40658" lon="1.87696">
        <ele>238.87</ele>
        <time>2019-04-14T07:54:40Z</time>
      </trkpt>
      <trkpt lat="43.40655" lon="1.87724">
        <ele>235.81</ele>
        <time>2019-04-14T07:54:45Z</time>
      </trkpt>
      <trkpt lat="43.40646" lon="1.87749">
        <ele>232.55</ele>
        <time>2019-04-14T07:54:50Z</time>
      </trkpt>
      <trkpt lat="43.40629" lon="1.87755">
        <ele>227.69</ele>
        <time>2019-04-14T07:54:56Z</time>
      </trkpt>
      <trkpt lat="43.40609" lon="1.87746">
        <ele>225.05</ele>
        <time>2019-04-14T07:55:01Z</time>
      </trkpt>
      <trkpt lat="43.40598" lon="1.8774">
        <ele>213.12</ele>
        <time>2019-04-14T07:55:24Z</time>
      </trkpt>
    </trkseg>
  </trk>
</gpx>